sensor_id;sensor_type;location;lat;lon;timestamp;P1;durP1;ratioP1;P2;durP2;ratioP2
55537;SDS011;41383;51.418;7.286;2022-10-18T00:00:53;3.13;;;1.63;;
55537;SDS011;41383;51.418;7.286;2022-10-18T00:03:19;5.82;;;3.10;;
55537;SDS011;41383;51.418;7.286;2022-10-18T00:05:45;5.90;;;2.17;;
55537;SDS011;41383;51.418;7.286;2022-10-18T00:08:11;5.15;;;2.33;;
55537;SDS011;41383;51.418;7.286;2022-10-18T00:10:37;5.75;;;1.52;;
55537;SDS011;41383;51.418;7.286;2022-10-18T00:13:02;8.93;;;1.73;;
55537;SDS011;41383;51.418;7.286;2022-10-18T00:15:30;2.30;;;1.17;;
55537;SDS011;41383;51.418;7.286;2022-10-18T00:17:55;4.27;;;1.73;;
55537;SDS011;41383;51.418;7.286;2022-10-18T00:20:24;6.10;;;1.95;;
55537;SDS011;41383;51.418;7.286;2022-10-18T00:22:49;7.82;;;2.33;;
55537;SDS011;41383;51.418;7.286;2022-10-18T00:25:14;3.87;;;1.97;;
55537;SDS011;41383;51.418;7.286;2022-10-18T00:27:40;4.35;;;1.58;;
55537;SDS011;41383;51.418;7.286;2022-10-18T00:30:05;7.00;;;1.55;;
55537;SDS011;41383;51.418;7.286;2022-10-18T00:32:34;5.50;;;1.83;;
55537;SDS011;41383;51.418;7.286;2022-10-18T00:35:02;3.22;;;1.45;;
55537;SDS011;41383;51.418;7.286;2022-10-18T00:37:28;7.82;;;2.03;;
55537;SDS011;41383;51.418;7.286;2022-10-18T00:39:53;4.80;;;1.75;;
55537;SDS011;41383;51.418;7.286;2022-10-18T00:42:19;7.10;;;2.10;;
55537;SDS011;41383;51.418;7.286;2022-10-18T00:47:14;6.03;;;1.55;;
55537;SDS011;41383;51.418;7.286;2022-10-18T00:49:45;4.20;;;1.38;;
55537;SDS011;41383;51.418;7.286;2022-10-18T00:52:18;6.72;;;1.65;;
55537;SDS011;41383;51.418;7.286;2022-10-18T00:54:50;4.75;;;1.77;;
55537;SDS011;41383;51.418;7.286;2022-10-18T00:57:18;4.35;;;1.40;;
55537;SDS011;41383;51.418;7.286;2022-10-18T00:59:43;3.70;;;1.23;;
55537;SDS011;41383;51.418;7.286;2022-10-18T01:02:10;3.28;;;1.40;;
55537;SDS011;41383;51.418;7.286;2022-10-18T01:04:39;3.75;;;1.15;;
55537;SDS011;41383;51.418;7.286;2022-10-18T01:17:51;3.65;;;1.48;;
55537;SDS011;41383;51.418;7.286;2022-10-18T01:26:26;3.37;;;1.60;;
55537;SDS011;41383;51.418;7.286;2022-10-18T01:29:21;4.63;;;1.10;;
55537;SDS011;41383;51.418;7.286;2022-10-18T01:32:09;6.85;;;1.55;;
55537;SDS011;41383;51.418;7.286;2022-10-18T01:34:38;2.90;;;0.90;;
55537;SDS011;41383;51.418;7.286;2022-10-18T01:37:08;2.83;;;1.17;;
55537;SDS011;41383;51.418;7.286;2022-10-18T01:39:38;2.20;;;0.90;;
55537;SDS011;41383;51.418;7.286;2022-10-18T01:42:08;2.47;;;0.77;;
55537;SDS011;41383;51.418;7.286;2022-10-18T01:44:36;3.67;;;1.23;;
55537;SDS011;41383;51.418;7.286;2022-10-18T01:47:03;10.43;;;1.40;;
55537;SDS011;41383;51.418;7.286;2022-10-18T01:49:31;5.72;;;1.10;;
55537;SDS011;41383;51.418;7.286;2022-10-18T01:51:57;2.65;;;1.13;;
55537;SDS011;41383;51.418;7.286;2022-10-18T01:54:25;3.00;;;1.50;;
55537;SDS011;41383;51.418;7.286;2022-10-18T02:00:03;4.13;;;1.67;;
55537;SDS011;41383;51.418;7.286;2022-10-18T02:05:21;3.42;;;1.67;;
55537;SDS011;41383;51.418;7.286;2022-10-18T02:08:06;3.38;;;1.00;;
55537;SDS011;41383;51.418;7.286;2022-10-18T02:10:46;3.95;;;1.50;;
55537;SDS011;41383;51.418;7.286;2022-10-18T02:13:15;4.72;;;1.40;;
55537;SDS011;41383;51.418;7.286;2022-10-18T02:15:44;4.78;;;1.80;;
55537;SDS011;41383;51.418;7.286;2022-10-18T02:18:14;6.18;;;1.73;;
55537;SDS011;41383;51.418;7.286;2022-10-18T02:20:43;4.13;;;1.08;;
55537;SDS011;41383;51.418;7.286;2022-10-18T02:23:09;2.50;;;1.17;;
55537;SDS011;41383;51.418;7.286;2022-10-18T02:25:36;5.55;;;2.42;;
55537;SDS011;41383;51.418;7.286;2022-10-18T02:28:02;4.10;;;1.52;;
55537;SDS011;41383;51.418;7.286;2022-10-18T02:30:36;3.53;;;1.35;;
55537;SDS011;41383;51.418;7.286;2022-10-18T02:33:15;3.45;;;1.38;;
55537;SDS011;41383;51.418;7.286;2022-10-18T02:35:46;5.78;;;2.25;;
55537;SDS011;41383;51.418;7.286;2022-10-18T02:38:16;6.72;;;3.13;;
55537;SDS011;41383;51.418;7.286;2022-10-18T02:40:44;3.08;;;1.60;;
55537;SDS011;41383;51.418;7.286;2022-10-18T02:43:09;4.37;;;1.67;;
55537;SDS011;41383;51.418;7.286;2022-10-18T02:45:34;4.33;;;1.93;;
55537;SDS011;41383;51.418;7.286;2022-10-18T02:48:00;4.72;;;2.08;;
55537;SDS011;41383;51.418;7.286;2022-10-18T02:50:25;7.80;;;2.33;;
55537;SDS011;41383;51.418;7.286;2022-10-18T02:52:50;4.45;;;1.60;;
55537;SDS011;41383;51.418;7.286;2022-10-18T02:55:16;5.78;;;2.08;;
55537;SDS011;41383;51.418;7.286;2022-10-18T02:57:42;4.43;;;1.73;;
55537;SDS011;41383;51.418;7.286;2022-10-18T03:00:07;10.77;;;2.55;;
55537;SDS011;41383;51.418;7.286;2022-10-18T03:02:33;7.05;;;2.97;;
55537;SDS011;41383;51.418;7.286;2022-10-18T03:04:59;3.35;;;1.70;;
55537;SDS011;41383;51.418;7.286;2022-10-18T03:07:24;5.05;;;2.42;;
55537;SDS011;41383;51.418;7.286;2022-10-18T03:09:49;8.57;;;3.20;;
55537;SDS011;41383;51.418;7.286;2022-10-18T03:12:15;6.90;;;2.97;;
55537;SDS011;41383;51.418;7.286;2022-10-18T03:14:40;5.78;;;3.22;;
55537;SDS011;41383;51.418;7.286;2022-10-18T03:17:06;13.23;;;3.88;;
55537;SDS011;41383;51.418;7.286;2022-10-18T03:19:31;5.75;;;2.20;;
55537;SDS011;41383;51.418;7.286;2022-10-18T03:21:56;6.75;;;2.90;;
55537;SDS011;41383;51.418;7.286;2022-10-18T03:24:22;9.37;;;3.30;;
55537;SDS011;41383;51.418;7.286;2022-10-18T03:26:47;7.20;;;2.53;;
55537;SDS011;41383;51.418;7.286;2022-10-18T03:29:12;5.88;;;2.80;;
55537;SDS011;41383;51.418;7.286;2022-10-18T03:31:38;6.40;;;3.10;;
55537;SDS011;41383;51.418;7.286;2022-10-18T03:34:03;6.23;;;2.87;;
55537;SDS011;41383;51.418;7.286;2022-10-18T03:36:28;7.22;;;3.60;;
55537;SDS011;41383;51.418;7.286;2022-10-18T03:38:53;6.50;;;3.50;;
55537;SDS011;41383;51.418;7.286;2022-10-18T03:41:19;6.77;;;2.83;;
55537;SDS011;41383;51.418;7.286;2022-10-18T03:43:45;9.48;;;3.53;;
55537;SDS011;41383;51.418;7.286;2022-10-18T03:46:10;5.13;;;3.10;;
55537;SDS011;41383;51.418;7.286;2022-10-18T03:48:36;6.95;;;3.25;;
55537;SDS011;41383;51.418;7.286;2022-10-18T03:51:01;5.53;;;3.05;;
55537;SDS011;41383;51.418;7.286;2022-10-18T03:53:26;6.28;;;2.17;;
55537;SDS011;41383;51.418;7.286;2022-10-18T03:55:52;5.03;;;2.55;;
55537;SDS011;41383;51.418;7.286;2022-10-18T03:58:18;5.72;;;2.55;;
55537;SDS011;41383;51.418;7.286;2022-10-18T04:00:43;6.63;;;3.00;;
55537;SDS011;41383;51.418;7.286;2022-10-18T04:03:08;4.80;;;1.90;;
55537;SDS011;41383;51.418;7.286;2022-10-18T04:05:34;6.25;;;3.10;;
55537;SDS011;41383;51.418;7.286;2022-10-18T04:08:00;6.68;;;3.83;;
55537;SDS011;41383;51.418;7.286;2022-10-18T04:10:26;9.27;;;2.60;;
55537;SDS011;41383;51.418;7.286;2022-10-18T04:12:51;8.73;;;3.45;;
55537;SDS011;41383;51.418;7.286;2022-10-18T04:15:17;8.75;;;2.97;;
55537;SDS011;41383;51.418;7.286;2022-10-18T04:17:42;9.02;;;3.40;;
55537;SDS011;41383;51.418;7.286;2022-10-18T04:20:07;7.60;;;3.08;;
55537;SDS011;41383;51.418;7.286;2022-10-18T04:22:33;6.88;;;3.83;;
55537;SDS011;41383;51.418;7.286;2022-10-18T04:24:58;7.78;;;4.85;;
55537;SDS011;41383;51.418;7.286;2022-10-18T04:27:25;8.05;;;4.32;;
55537;SDS011;41383;51.418;7.286;2022-10-18T04:29:50;7.68;;;3.63;;
55537;SDS011;41383;51.418;7.286;2022-10-18T04:32:16;8.88;;;3.85;;
55537;SDS011;41383;51.418;7.286;2022-10-18T04:34:41;9.13;;;4.23;;
55537;SDS011;41383;51.418;7.286;2022-10-18T04:37:06;9.87;;;3.60;;
55537;SDS011;41383;51.418;7.286;2022-10-18T04:39:31;10.82;;;5.72;;
55537;SDS011;41383;51.418;7.286;2022-10-18T04:41:57;9.37;;;4.13;;
55537;SDS011;41383;51.418;7.286;2022-10-18T04:44:22;7.82;;;4.03;;
55537;SDS011;41383;51.418;7.286;2022-10-18T04:46:47;12.73;;;4.57;;
55537;SDS011;41383;51.418;7.286;2022-10-18T04:49:13;8.60;;;4.20;;
55537;SDS011;41383;51.418;7.286;2022-10-18T04:51:38;10.50;;;5.15;;
55537;SDS011;41383;51.418;7.286;2022-10-18T04:54:03;9.65;;;4.80;;
55537;SDS011;41383;51.418;7.286;2022-10-18T04:56:29;11.40;;;4.38;;
55537;SDS011;41383;51.418;7.286;2022-10-18T04:58:54;11.23;;;4.90;;
55537;SDS011;41383;51.418;7.286;2022-10-18T05:01:19;12.15;;;5.45;;
55537;SDS011;41383;51.418;7.286;2022-10-18T05:03:45;9.23;;;4.45;;
55537;SDS011;41383;51.418;7.286;2022-10-18T05:06:10;10.20;;;4.45;;
55537;SDS011;41383;51.418;7.286;2022-10-18T05:08:35;9.13;;;4.97;;
55537;SDS011;41383;51.418;7.286;2022-10-18T05:11:01;9.18;;;5.00;;
55537;SDS011;41383;51.418;7.286;2022-10-18T05:13:28;13.07;;;6.30;;
55537;SDS011;41383;51.418;7.286;2022-10-18T05:15:53;10.32;;;6.60;;
55537;SDS011;41383;51.418;7.286;2022-10-18T05:18:19;10.75;;;5.55;;
55537;SDS011;41383;51.418;7.286;2022-10-18T05:20:44;16.70;;;6.97;;
55537;SDS011;41383;51.418;7.286;2022-10-18T05:23:10;12.02;;;5.78;;
55537;SDS011;41383;51.418;7.286;2022-10-18T05:25:39;12.50;;;6.50;;
55537;SDS011;41383;51.418;7.286;2022-10-18T05:28:06;19.83;;;7.75;;
55537;SDS011;41383;51.418;7.286;2022-10-18T05:30:31;14.70;;;7.07;;
55537;SDS011;41383;51.418;7.286;2022-10-18T05:32:57;11.52;;;6.65;;
55537;SDS011;41383;51.418;7.286;2022-10-18T05:35:22;18.83;;;8.07;;
55537;SDS011;41383;51.418;7.286;2022-10-18T05:37:47;14.43;;;7.27;;
55537;SDS011;41383;51.418;7.286;2022-10-18T05:40:12;12.95;;;6.13;;
55537;SDS011;41383;51.418;7.286;2022-10-18T05:42:38;23.17;;;11.07;;
55537;SDS011;41383;51.418;7.286;2022-10-18T05:45:03;14.65;;;8.38;;
55537;SDS011;41383;51.418;7.286;2022-10-18T05:47:29;16.25;;;9.13;;
55537;SDS011;41383;51.418;7.286;2022-10-18T05:49:54;16.10;;;8.53;;
55537;SDS011;41383;51.418;7.286;2022-10-18T05:52:19;26.80;;;13.63;;
55537;SDS011;41383;51.418;7.286;2022-10-18T05:54:45;18.88;;;10.52;;
55537;SDS011;41383;51.418;7.286;2022-10-18T05:57:10;19.83;;;12.48;;
55537;SDS011;41383;51.418;7.286;2022-10-18T05:59:35;21.23;;;12.40;;
55537;SDS011;41383;51.418;7.286;2022-10-18T06:02:00;21.60;;;9.10;;
55537;SDS011;41383;51.418;7.286;2022-10-18T06:04:26;21.55;;;8.35;;
55537;SDS011;41383;51.418;7.286;2022-10-18T06:06:51;13.37;;;7.33;;
55537;SDS011;41383;51.418;7.286;2022-10-18T06:09:17;15.93;;;7.93;;
55537;SDS011;41383;51.418;7.286;2022-10-18T06:11:43;12.65;;;6.50;;
55537;SDS011;41383;51.418;7.286;2022-10-18T06:14:08;16.42;;;7.55;;
55537;SDS011;41383;51.418;7.286;2022-10-18T06:16:33;17.27;;;8.10;;
55537;SDS011;41383;51.418;7.286;2022-10-18T06:18:59;14.40;;;7.73;;
55537;SDS011;41383;51.418;7.286;2022-10-18T06:21:24;18.77;;;8.75;;
55537;SDS011;41383;51.418;7.286;2022-10-18T06:23:50;21.00;;;8.20;;
55537;SDS011;41383;51.418;7.286;2022-10-18T06:26:17;15.38;;;8.23;;
55537;SDS011;41383;51.418;7.286;2022-10-18T06:28:42;20.52;;;9.15;;
55537;SDS011;41383;51.418;7.286;2022-10-18T06:31:08;15.07;;;7.50;;
55537;SDS011;41383;51.418;7.286;2022-10-18T06:33:35;19.15;;;11.00;;
55537;SDS011;41383;51.418;7.286;2022-10-18T06:36:02;20.67;;;9.50;;
55537;SDS011;41383;51.418;7.286;2022-10-18T06:38:35;18.90;;;8.50;;
55537;SDS011;41383;51.418;7.286;2022-10-18T06:41:00;15.90;;;8.50;;
55537;SDS011;41383;51.418;7.286;2022-10-18T06:43:26;18.50;;;9.85;;
55537;SDS011;41383;51.418;7.286;2022-10-18T06:45:52;24.67;;;8.93;;
55537;SDS011;41383;51.418;7.286;2022-10-18T06:48:18;18.60;;;9.90;;
55537;SDS011;41383;51.418;7.286;2022-10-18T06:53:23;18.38;;;8.55;;
55537;SDS011;41383;51.418;7.286;2022-10-18T06:55:50;17.95;;;9.13;;
55537;SDS011;41383;51.418;7.286;2022-10-18T06:58:15;18.20;;;9.83;;
55537;SDS011;41383;51.418;7.286;2022-10-18T07:00:40;21.80;;;11.23;;
55537;SDS011;41383;51.418;7.286;2022-10-18T07:03:06;16.85;;;8.98;;
55537;SDS011;41383;51.418;7.286;2022-10-18T07:05:31;17.70;;;9.93;;
55537;SDS011;41383;51.418;7.286;2022-10-18T07:07:56;17.52;;;9.60;;
55537;SDS011;41383;51.418;7.286;2022-10-18T07:10:25;16.65;;;8.18;;
55537;SDS011;41383;51.418;7.286;2022-10-18T07:12:50;15.50;;;9.63;;
55537;SDS011;41383;51.418;7.286;2022-10-18T07:15:15;21.30;;;10.50;;
55537;SDS011;41383;51.418;7.286;2022-10-18T07:17:42;17.95;;;9.57;;
55537;SDS011;41383;51.418;7.286;2022-10-18T07:20:09;24.15;;;12.13;;
55537;SDS011;41383;51.418;7.286;2022-10-18T07:22:35;18.20;;;9.02;;
55537;SDS011;41383;51.418;7.286;2022-10-18T07:25:02;29.85;;;12.50;;
55537;SDS011;41383;51.418;7.286;2022-10-18T07:27:28;20.48;;;11.23;;
55537;SDS011;41383;51.418;7.286;2022-10-18T07:29:54;17.08;;;9.30;;
55537;SDS011;41383;51.418;7.286;2022-10-18T07:32:20;14.87;;;8.53;;
55537;SDS011;41383;51.418;7.286;2022-10-18T07:34:45;18.52;;;8.65;;
55537;SDS011;41383;51.418;7.286;2022-10-18T07:37:10;17.10;;;8.33;;
55537;SDS011;41383;51.418;7.286;2022-10-18T07:39:36;22.58;;;11.63;;
55537;SDS011;41383;51.418;7.286;2022-10-18T07:42:01;18.37;;;9.70;;
55537;SDS011;41383;51.418;7.286;2022-10-18T07:44:26;21.83;;;11.75;;
55537;SDS011;41383;51.418;7.286;2022-10-18T07:46:51;20.80;;;9.82;;
55537;SDS011;41383;51.418;7.286;2022-10-18T07:49:17;16.65;;;10.40;;
55537;SDS011;41383;51.418;7.286;2022-10-18T07:51:42;16.60;;;9.07;;
55537;SDS011;41383;51.418;7.286;2022-10-18T07:54:07;21.88;;;8.68;;
55537;SDS011;41383;51.418;7.286;2022-10-18T07:56:33;19.05;;;8.90;;
55537;SDS011;41383;51.418;7.286;2022-10-18T07:58:58;22.63;;;10.65;;
55537;SDS011;41383;51.418;7.286;2022-10-18T08:01:24;22.33;;;9.10;;
55537;SDS011;41383;51.418;7.286;2022-10-18T08:03:50;20.20;;;12.65;;
55537;SDS011;41383;51.418;7.286;2022-10-18T08:06:16;26.52;;;13.10;;
55537;SDS011;41383;51.418;7.286;2022-10-18T08:08:43;22.08;;;11.60;;
55537;SDS011;41383;51.418;7.286;2022-10-18T08:11:10;21.38;;;12.48;;
55537;SDS011;41383;51.418;7.286;2022-10-18T08:13:39;24.90;;;14.00;;
55537;SDS011;41383;51.418;7.286;2022-10-18T08:16:15;32.88;;;13.43;;
55537;SDS011;41383;51.418;7.286;2022-10-18T08:18:42;21.88;;;13.10;;
55537;SDS011;41383;51.418;7.286;2022-10-18T08:21:08;21.95;;;11.45;;
55537;SDS011;41383;51.418;7.286;2022-10-18T08:23:34;25.08;;;12.55;;
55537;SDS011;41383;51.418;7.286;2022-10-18T08:26:01;25.42;;;15.65;;
55537;SDS011;41383;51.418;7.286;2022-10-18T08:28:28;24.02;;;13.48;;
55537;SDS011;41383;51.418;7.286;2022-10-18T08:30:53;24.83;;;15.15;;
55537;SDS011;41383;51.418;7.286;2022-10-18T08:33:19;24.10;;;15.83;;
55537;SDS011;41383;51.418;7.286;2022-10-18T08:35:53;24.93;;;12.33;;
55537;SDS011;41383;51.418;7.286;2022-10-18T08:38:19;25.67;;;14.27;;
55537;SDS011;41383;51.418;7.286;2022-10-18T08:40:44;33.90;;;19.17;;
55537;SDS011;41383;51.418;7.286;2022-10-18T08:45:42;29.23;;;16.77;;
55537;SDS011;41383;51.418;7.286;2022-10-18T08:48:43;28.13;;;15.20;;
55537;SDS011;41383;51.418;7.286;2022-10-18T08:51:03;28.73;;;15.77;;
55537;SDS011;41383;51.418;7.286;2022-10-18T08:53:33;28.65;;;15.23;;
55537;SDS011;41383;51.418;7.286;2022-10-18T08:56:10;30.30;;;16.85;;
55537;SDS011;41383;51.418;7.286;2022-10-18T08:58:39;27.20;;;15.00;;
55537;SDS011;41383;51.418;7.286;2022-10-18T09:04:32;30.10;;;13.82;;
55537;SDS011;41383;51.418;7.286;2022-10-18T09:09:59;29.25;;;13.70;;
55537;SDS011;41383;51.418;7.286;2022-10-18T09:12:47;30.33;;;16.00;;
55537;SDS011;41383;51.418;7.286;2022-10-18T09:15:28;37.78;;;20.05;;
55537;SDS011;41383;51.418;7.286;2022-10-18T09:18:07;33.65;;;19.92;;
55537;SDS011;41383;51.418;7.286;2022-10-18T09:20:54;28.85;;;16.45;;
55537;SDS011;41383;51.418;7.286;2022-10-18T09:23:27;41.10;;;19.08;;
55537;SDS011;41383;51.418;7.286;2022-10-18T09:25:57;43.28;;;23.20;;
55537;SDS011;41383;51.418;7.286;2022-10-18T09:33:54;40.55;;;21.95;;
55537;SDS011;41383;51.418;7.286;2022-10-18T09:36:26;47.42;;;23.13;;
55537;SDS011;41383;51.418;7.286;2022-10-18T09:41:33;42.58;;;24.10;;
55537;SDS011;41383;51.418;7.286;2022-10-18T09:44:08;42.20;;;25.05;;
55537;SDS011;41383;51.418;7.286;2022-10-18T09:46:41;45.65;;;25.95;;
55537;SDS011;41383;51.418;7.286;2022-10-18T09:49:14;40.10;;;21.15;;
55537;SDS011;41383;51.418;7.286;2022-10-18T09:51:43;54.72;;;27.25;;
55537;SDS011;41383;51.418;7.286;2022-10-18T09:54:26;55.33;;;25.83;;
55537;SDS011;41383;51.418;7.286;2022-10-18T09:57:09;45.05;;;21.10;;
55537;SDS011;41383;51.418;7.286;2022-10-18T09:59:47;45.15;;;24.17;;
55537;SDS011;41383;51.418;7.286;2022-10-18T10:02:14;39.53;;;23.20;;
55537;SDS011;41383;51.418;7.286;2022-10-18T10:04:41;49.08;;;25.75;;
55537;SDS011;41383;51.418;7.286;2022-10-18T10:07:08;56.28;;;24.30;;
55537;SDS011;41383;51.418;7.286;2022-10-18T10:09:44;50.70;;;25.02;;
55537;SDS011;41383;51.418;7.286;2022-10-18T10:20:27;34.08;;;19.00;;
55537;SDS011;41383;51.418;7.286;2022-10-18T10:23:11;38.20;;;21.08;;
55537;SDS011;41383;51.418;7.286;2022-10-18T10:25:43;41.65;;;25.15;;
55537;SDS011;41383;51.418;7.286;2022-10-18T10:28:14;41.75;;;26.52;;
55537;SDS011;41383;51.418;7.286;2022-10-18T10:30:42;48.55;;;24.15;;
55537;SDS011;41383;51.418;7.286;2022-10-18T10:33:30;39.58;;;21.88;;
55537;SDS011;41383;51.418;7.286;2022-10-18T10:36:01;43.83;;;21.65;;
55537;SDS011;41383;51.418;7.286;2022-10-18T10:38:29;51.75;;;23.42;;
55537;SDS011;41383;51.418;7.286;2022-10-18T10:40:55;51.88;;;25.35;;
55537;SDS011;41383;51.418;7.286;2022-10-18T10:43:23;38.20;;;23.90;;
55537;SDS011;41383;51.418;7.286;2022-10-18T10:48:32;38.35;;;19.73;;
55537;SDS011;41383;51.418;7.286;2022-10-18T10:51:06;38.03;;;21.08;;
55537;SDS011;41383;51.418;7.286;2022-10-18T10:56:24;49.85;;;23.77;;
55537;SDS011;41383;51.418;7.286;2022-10-18T10:58:52;41.20;;;22.00;;
55537;SDS011;41383;51.418;7.286;2022-10-18T11:01:20;50.00;;;23.63;;
55537;SDS011;41383;51.418;7.286;2022-10-18T11:03:47;92.32;;;27.80;;
55537;SDS011;41383;51.418;7.286;2022-10-18T11:06:29;115.30;;;27.73;;
55537;SDS011;41383;51.418;7.286;2022-10-18T11:08:56;43.10;;;24.02;;
55537;SDS011;41383;51.418;7.286;2022-10-18T11:11:25;42.90;;;22.38;;
55537;SDS011;41383;51.418;7.286;2022-10-18T11:19:37;41.10;;;23.08;;
55537;SDS011;41383;51.418;7.286;2022-10-18T11:22:11;42.40;;;22.73;;
55537;SDS011;41383;51.418;7.286;2022-10-18T11:24:40;42.78;;;24.92;;
55537;SDS011;41383;51.418;7.286;2022-10-18T11:27:09;39.88;;;24.15;;
55537;SDS011;41383;51.418;7.286;2022-10-18T11:32:38;55.15;;;25.02;;
55537;SDS011;41383;51.418;7.286;2022-10-18T11:38:14;45.55;;;20.63;;
55537;SDS011;41383;51.418;7.286;2022-10-18T11:40:49;61.28;;;22.25;;
55537;SDS011;41383;51.418;7.286;2022-10-18T11:54:58;47.17;;;21.70;;
55537;SDS011;41383;51.418;7.286;2022-10-18T12:05:57;33.00;;;19.45;;
55537;SDS011;41383;51.418;7.286;2022-10-18T12:08:38;35.65;;;18.35;;
55537;SDS011;41383;51.418;7.286;2022-10-18T12:11:11;31.73;;;19.17;;
55537;SDS011;41383;51.418;7.286;2022-10-18T12:13:49;30.55;;;17.35;;
55537;SDS011;41383;51.418;7.286;2022-10-18T12:16:18;30.05;;;17.88;;
55537;SDS011;41383;51.418;7.286;2022-10-18T12:18:56;35.58;;;17.40;;
55537;SDS011;41383;51.418;7.286;2022-10-18T12:21:25;30.08;;;15.52;;
55537;SDS011;41383;51.418;7.286;2022-10-18T12:23:54;35.05;;;18.33;;
55537;SDS011;41383;51.418;7.286;2022-10-18T12:26:23;32.08;;;18.50;;
55537;SDS011;41383;51.418;7.286;2022-10-18T12:31:44;33.08;;;16.70;;
55537;SDS011;41383;51.418;7.286;2022-10-18T12:34:36;29.63;;;14.85;;
55537;SDS011;41383;51.418;7.286;2022-10-18T12:39:42;27.73;;;15.50;;
55537;SDS011;41383;51.418;7.286;2022-10-18T12:42:19;24.35;;;14.48;;
55537;SDS011;41383;51.418;7.286;2022-10-18T12:44:47;25.25;;;14.07;;
55537;SDS011;41383;51.418;7.286;2022-10-18T12:47:20;20.80;;;12.32;;
55537;SDS011;41383;51.418;7.286;2022-10-18T12:49:54;23.98;;;12.98;;
55537;SDS011;41383;51.418;7.286;2022-10-18T13:19:30;16.15;;;8.05;;
55537;SDS011;41383;51.418;7.286;2022-10-18T13:21:56;16.35;;;7.63;;
55537;SDS011;41383;51.418;7.286;2022-10-18T13:24:40;13.00;;;6.90;;
55537;SDS011;41383;51.418;7.286;2022-10-18T13:32:22;19.07;;;7.10;;
55537;SDS011;41383;51.418;7.286;2022-10-18T13:34:54;41.80;;;10.57;;
55537;SDS011;41383;51.418;7.286;2022-10-18T13:37:20;27.98;;;8.70;;
55537;SDS011;41383;51.418;7.286;2022-10-18T13:39:48;9.68;;;6.00;;
55537;SDS011;41383;51.418;7.286;2022-10-18T13:42:19;10.68;;;5.28;;
55537;SDS011;41383;51.418;7.286;2022-10-18T13:44:52;13.80;;;6.28;;
55537;SDS011;41383;51.418;7.286;2022-10-18T13:47:39;13.43;;;4.85;;
55537;SDS011;41383;51.418;7.286;2022-10-18T13:50:12;15.25;;;6.13;;
55537;SDS011;41383;51.418;7.286;2022-10-18T14:06:19;13.65;;;4.78;;
55537;SDS011;41383;51.418;7.286;2022-10-18T14:08:58;10.20;;;4.05;;
55537;SDS011;41383;51.418;7.286;2022-10-18T14:14:15;12.90;;;5.05;;
55537;SDS011;41383;51.418;7.286;2022-10-18T14:16:49;10.25;;;3.65;;
55537;SDS011;41383;51.418;7.286;2022-10-18T14:22:40;10.75;;;3.22;;
55537;SDS011;41383;51.418;7.286;2022-10-18T14:28:02;8.27;;;4.03;;
55537;SDS011;41383;51.418;7.286;2022-10-18T14:31:00;10.38;;;3.72;;
55537;SDS011;41383;51.418;7.286;2022-10-18T14:33:34;8.68;;;3.50;;
55537;SDS011;41383;51.418;7.286;2022-10-18T14:36:04;13.50;;;3.50;;
55537;SDS011;41383;51.418;7.286;2022-10-18T14:38:30;10.75;;;3.35;;
55537;SDS011;41383;51.418;7.286;2022-10-18T14:41:10;11.10;;;3.08;;
55537;SDS011;41383;51.418;7.286;2022-10-18T14:43:39;13.02;;;3.60;;
55537;SDS011;41383;51.418;7.286;2022-10-18T14:46:15;7.95;;;3.05;;
55537;SDS011;41383;51.418;7.286;2022-10-18T14:48:55;8.07;;;2.72;;
55537;SDS011;41383;51.418;7.286;2022-10-18T14:51:23;7.10;;;2.30;;
55537;SDS011;41383;51.418;7.286;2022-10-18T14:53:49;5.63;;;1.73;;
55537;SDS011;41383;51.418;7.286;2022-10-18T14:56:20;7.50;;;2.78;;
55537;SDS011;41383;51.418;7.286;2022-10-18T14:58:45;9.52;;;3.00;;
55537;SDS011;41383;51.418;7.286;2022-10-18T15:01:18;8.02;;;2.97;;
55537;SDS011;41383;51.418;7.286;2022-10-18T15:03:45;11.93;;;3.38;;
55537;SDS011;41383;51.418;7.286;2022-10-18T15:06:15;10.15;;;3.35;;
55537;SDS011;41383;51.418;7.286;2022-10-18T15:08:43;7.70;;;2.88;;
55537;SDS011;41383;51.418;7.286;2022-10-18T15:11:12;26.30;;;2.92;;
55537;SDS011;41383;51.418;7.286;2022-10-18T15:13:45;12.82;;;2.15;;
55537;SDS011;41383;51.418;7.286;2022-10-18T15:16:22;8.07;;;2.92;;
55537;SDS011;41383;51.418;7.286;2022-10-18T15:19:18;11.90;;;4.13;;
55537;SDS011;41383;51.418;7.286;2022-10-18T15:21:56;8.75;;;3.33;;
55537;SDS011;41383;51.418;7.286;2022-10-18T15:27:01;11.00;;;2.97;;
55537;SDS011;41383;51.418;7.286;2022-10-18T15:29:36;4.88;;;1.48;;
55537;SDS011;41383;51.418;7.286;2022-10-18T15:32:07;11.30;;;4.30;;
55537;SDS011;41383;51.418;7.286;2022-10-18T15:34:39;11.48;;;4.38;;
55537;SDS011;41383;51.418;7.286;2022-10-18T15:37:15;9.30;;;4.18;;
55537;SDS011;41383;51.418;7.286;2022-10-18T15:39:42;21.88;;;4.97;;
55537;SDS011;41383;51.418;7.286;2022-10-18T15:42:30;11.95;;;3.97;;
55537;SDS011;41383;51.418;7.286;2022-10-18T15:45:00;11.05;;;4.28;;
55537;SDS011;41383;51.418;7.286;2022-10-18T15:47:25;14.50;;;3.77;;
55537;SDS011;41383;51.418;7.286;2022-10-18T15:49:54;11.50;;;4.53;;
55537;SDS011;41383;51.418;7.286;2022-10-18T15:54:45;16.80;;;4.73;;
55537;SDS011;41383;51.418;7.286;2022-10-18T15:57:11;8.85;;;3.10;;
55537;SDS011;41383;51.418;7.286;2022-10-18T15:59:37;13.90;;;3.88;;
55537;SDS011;41383;51.418;7.286;2022-10-18T16:02:13;10.55;;;4.38;;
55537;SDS011;41383;51.418;7.286;2022-10-18T16:04:38;12.00;;;4.13;;
55537;SDS011;41383;51.418;7.286;2022-10-18T16:07:04;12.50;;;4.47;;
55537;SDS011;41383;51.418;7.286;2022-10-18T16:09:29;7.57;;;3.53;;
55537;SDS011;41383;51.418;7.286;2022-10-18T16:11:54;10.07;;;4.07;;
55537;SDS011;41383;51.418;7.286;2022-10-18T16:14:20;12.23;;;6.20;;
55537;SDS011;41383;51.418;7.286;2022-10-18T16:16:46;10.75;;;4.10;;
55537;SDS011;41383;51.418;7.286;2022-10-18T16:19:15;13.25;;;4.63;;
55537;SDS011;41383;51.418;7.286;2022-10-18T16:21:45;7.28;;;3.75;;
55537;SDS011;41383;51.418;7.286;2022-10-18T16:24:10;13.82;;;4.68;;
55537;SDS011;41383;51.418;7.286;2022-10-18T16:26:36;11.13;;;4.15;;
55537;SDS011;41383;51.418;7.286;2022-10-18T16:29:01;19.10;;;8.63;;
55537;SDS011;41383;51.418;7.286;2022-10-18T16:31:28;12.88;;;4.78;;
55537;SDS011;41383;51.418;7.286;2022-10-18T16:33:56;18.60;;;6.97;;
55537;SDS011;41383;51.418;7.286;2022-10-18T16:36:23;10.90;;;4.20;;
55537;SDS011;41383;51.418;7.286;2022-10-18T16:38:53;14.98;;;5.43;;
55537;SDS011;41383;51.418;7.286;2022-10-18T16:41:20;12.43;;;5.15;;
55537;SDS011;41383;51.418;7.286;2022-10-18T16:43:46;9.63;;;4.00;;
55537;SDS011;41383;51.418;7.286;2022-10-18T16:46:24;13.32;;;5.65;;
55537;SDS011;41383;51.418;7.286;2022-10-18T16:48:51;13.27;;;5.35;;
55537;SDS011;41383;51.418;7.286;2022-10-18T16:51:17;11.30;;;5.50;;
55537;SDS011;41383;51.418;7.286;2022-10-18T16:53:43;10.15;;;4.72;;
55537;SDS011;41383;51.418;7.286;2022-10-18T16:56:15;8.88;;;3.92;;
55537;SDS011;41383;51.418;7.286;2022-10-18T16:58:43;7.43;;;3.50;;
55537;SDS011;41383;51.418;7.286;2022-10-18T17:01:10;19.02;;;3.92;;
55537;SDS011;41383;51.418;7.286;2022-10-18T17:03:36;7.93;;;3.00;;
55537;SDS011;41383;51.418;7.286;2022-10-18T17:06:02;14.35;;;3.95;;
55537;SDS011;41383;51.418;7.286;2022-10-18T17:08:28;8.93;;;3.38;;
55537;SDS011;41383;51.418;7.286;2022-10-18T17:10:54;7.95;;;2.97;;
55537;SDS011;41383;51.418;7.286;2022-10-18T17:13:21;8.65;;;3.97;;
55537;SDS011;41383;51.418;7.286;2022-10-18T17:15:48;17.85;;;3.83;;
55537;SDS011;41383;51.418;7.286;2022-10-18T17:18:19;11.35;;;3.55;;
55537;SDS011;41383;51.418;7.286;2022-10-18T17:20:46;5.18;;;1.80;;